| time (UTC) | temp F | wind direction | speed knots | gust knots | rain 1hr in | rain 24hr in | rain mn in | humidity % | barometer mb |
| 20260902014106 | 57 | 223 | 0.0 | 2.6 | 0.00 | 0.01 | 0.00 | 86 | 1021.8 |
| 20260902013047 | 57 | 218 | 0.0 | 1.7 | 0.00 | 0.01 | 0.00 | 86 | 1021.8 |
| 20260902012050 | 57 | 229 | 0.0 | 0.9 | 0.00 | 0.01 | 0.00 | 85 | 1021.6 |
| 20260902011115 | 58 | 221 | 0.0 | 1.7 | 0.00 | 0.01 | 0.00 | 85 | 1021.6 |
| 20260902010056 | 58 | 193 | 0.0 | 0.9 | 0.00 | 0.01 | 0.00 | 85 | 1021.9 |
| 20260902005059 | 58 | 220 | 0.0 | 1.7 | 0.00 | 0.01 | 0.00 | 85 | 1021.9 |
| 20260902004019 | 58 | 209 | 0.9 | 1.7 | 0.00 | 0.01 | 0.00 | 85 | 1021.9 |
| 20260902003043 | 58 | 0.0 | 0.9 | 0.00 | 0.01 | 0.00 | 85 | 1021.9 | |
| 20260902002107 | 58 | 229 | 0.0 | 1.7 | 0.00 | 0.01 | 0.00 | 85 | 1022.0 |
| 20260902001026 | 58 | 234 | 0.0 | 1.7 | 0.00 | 0.01 | 0.00 | 85 | 1022.1 |
| 20260902000052 | 57 | 223 | 0.9 | 0.9 | 0.00 | 0.01 | 0.00 | 85 | 1022.0 |
| 20260901235115 | 57 | 0.0 | 1.7 | 0.00 | 0.01 | 0.00 | 85 | 1022.0 | |
| 20260901234034 | 57 | 0.0 | 0.9 | 0.00 | 0.01 | 0.00 | 86 | 1022.0 | |
| 20260901233107 | 57 | 0.0 | 0.0 | 0.00 | 0.01 | 0.00 | 87 | 1022.2 | |
| 20260901232026 | 56 | 0.0 | 0.0 | 0.00 | 0.01 | 0.00 | 89 | 1022.3 | |
| 20260901231051 | 56 | 0.0 | 0.0 | 0.00 | 0.01 | 0.00 | 88 | 1022.2 | |
| 20260901230115 | 56 | 0.0 | 0.0 | 0.00 | 0.01 | 0.00 | 87 | 1022.2 | |
| 20260901225035 | 57 | 0.0 | 0.0 | 0.00 | 0.01 | 0.00 | 87 | 1022.2 | |
| 20260901224059 | 57 | 0.0 | 0.0 | 0.00 | 0.01 | 0.00 | 87 | 1022.2 | |
| 20260901223018 | 57 | 0.0 | 0.0 | 0.00 | 0.01 | 0.00 | 88 | 1022.3 | |
| 20260901222043 | 57 | 0.0 | 0.0 | 0.00 | 0.01 | 0.00 | 88 | 1022.3 | |
| 20260901221114 | 57 | 0.0 | 0.0 | 0.00 | 0.01 | 0.00 | 87 | 1022.4 | |
| 20260901220035 | 57 | 229 | 0.0 | 1.7 | 0.00 | 0.01 | 0.00 | 88 | 1022.3 |
| 20260901215059 | 58 | 0.0 | 0.0 | 0.00 | 0.01 | 0.01 | 87 | 1022.3 | |
| 20260901214019 | 58 | 0.0 | 0.0 | 0.00 | 0.01 | 0.01 | 86 | 1022.3 | |
| 20260901213043 | 59 | 0.0 | 0.0 | 0.00 | 0.01 | 0.01 | 85 | 1022.4 | |
| 20260901212107 | 59 | 0.0 | 0.0 | 0.00 | 0.01 | 0.01 | 86 | 1022.4 | |
| 20260901211027 | 60 | 0.0 | 0.0 | 0.00 | 0.01 | 0.01 | 86 | 1022.3 | |
| 20260901210053 | 59 | 0.0 | 0.0 | 0.00 | 0.01 | 0.01 | 88 | 1022.3 | |
| 20260901205115 | 59 | 0.0 | 0.0 | 0.00 | 0.01 | 0.01 | 88 | 1022.6 | |
| 20260901204035 | 59 | 0.0 | 0.0 | 0.00 | 0.01 | 0.01 | 89 | 1022.5 | |
| 20260901203059 | 58 | 0.0 | 0.0 | 0.00 | 0.01 | 0.01 | 89 | 1022.7 | |
| 20260901202019 | 58 | 0.0 | 0.0 | 0.00 | 0.01 | 0.01 | 89 | 1022.7 | |
| 20260901201043 | 58 | 0.0 | 0.0 | 0.00 | 0.01 | 0.01 | 88 | 1022.6 | |
| 20260901200107 | 58 | 0.0 | 0.0 | 0.00 | 0.01 | 0.01 | 87 | 1022.5 | |
| 20260901195027 | 59 | 0.0 | 0.0 | 0.00 | 0.01 | 0.01 | 86 | 1022.4 | |
| 20260901194050 | 59 | 0.0 | 0.0 | 0.00 | 0.01 | 0.01 | 85 | 1022.4 | |
| 20260901193114 | 59 | 0.0 | 0.0 | 0.00 | 0.01 | 0.01 | 83 | 1022.3 | |
| 20260901192054 | 60 | 0.0 | 0.0 | 0.00 | 0.01 | 0.01 | 82 | 1022.3 | |
| 20260901191059 | 61 | 0.0 | 0.0 | 0.00 | 0.01 | 0.01 | 81 | 1022.2 | |
| 20260901190039 | 62 | 0.0 | 0.0 | 0.00 | 0.01 | 0.01 | 80 | 1022.2 | |
| 20260901185043 | 63 | 0.0 | 0.0 | 0.00 | 0.01 | 0.01 | 76 | 1022.2 | |
| 20260901184107 | 64 | 0.0 | 0.0 | 0.00 | 0.01 | 0.01 | 74 | 1021.9 | |
| 20260901183027 | 65 | 157 | 0.0 | 1.7 | 0.00 | 0.01 | 0.01 | 72 | 1021.8 |
| 20260901182050 | 65 | 194 | 0.0 | 1.7 | 0.00 | 0.01 | 0.01 | 71 | 1021.8 |
| 20260901181115 | 66 | 250 | 0.0 | 0.9 | 0.00 | 0.01 | 0.01 | 70 | 1021.9 |
| 20260901180043 | 67 | 247 | 0.0 | 1.7 | 0.00 | 0.01 | 0.01 | 68 | 1021.7 |
| 20260901175117 | 68 | 308 | 0.9 | 1.7 | 0.00 | 0.01 | 0.01 | 67 | 1021.8 |
| 20260901174035 | 68 | 338 | 2.6 | 6.1 | 0.00 | 0.01 | 0.01 | 64 | 1021.8 |
| 20260901173101 | 69 | 253 | 0.9 | 2.6 | 0.00 | 0.01 | 0.01 | 59 | 1021.7 |
| 20260901172038 | 69 | 0.0 | 0.0 | 0.00 | 0.01 | 0.01 | 60 | 1021.7 | |
| 20260901171043 | 70 | 245 | 2.6 | 6.1 | 0.00 | 0.01 | 0.01 | 58 | 1021.8 |
| 20260901170108 | 71 | 263 | 5.2 | 7.8 | 0.00 | 0.01 | 0.01 | 56 | 1021.7 |
| 20260901165026 | 71 | 260 | 2.6 | 5.2 | 0.00 | 0.01 | 0.01 | 57 | 1021.7 |
| 20260901164050 | 70 | 269 | 5.2 | 7.0 | 0.00 | 0.01 | 0.01 | 59 | 1021.7 |
| 20260901163117 | 70 | 282 | 1.7 | 3.5 | 0.00 | 0.01 | 0.01 | 59 | 1021.7 |
| 20260901162044 | 70 | 254 | 2.6 | 6.1 | 0.00 | 0.01 | 0.01 | 60 | 1021.7 |
| 20260901161107 | 70 | 234 | 2.6 | 5.2 | 0.00 | 0.01 | 0.01 | 60 | 1021.7 |
| 20260901160026 | 73 | 245 | 1.7 | 5.2 | 0.00 | 0.01 | 0.01 | 57 | 1021.7 |
| 20260901155052 | 71 | 258 | 0.9 | 3.5 | 0.00 | 0.01 | 0.01 | 59 | 1021.7 |
| 20260901154114 | 70 | 261 | 1.7 | 5.2 | 0.00 | 0.01 | 0.01 | 61 | 1021.8 |
| 20260901153035 | 70 | 263 | 1.7 | 6.1 | 0.00 | 0.01 | 0.01 | 62 | 1021.7 |
| 20260901152058 | 71 | 238 | 3.5 | 6.1 | 0.00 | 0.01 | 0.01 | 58 | 1021.6 |
| 20260901151018 | 72 | 235 | 3.5 | 7.0 | 0.00 | 0.01 | 0.01 | 60 | 1021.7 |
| 20260901145107 | 70 | 304 | 3.5 | 7.0 | 0.00 | 0.01 | 0.01 | 64 | 1021.7 |
| 20260901144028 | 70 | 283 | 3.5 | 6.1 | 0.00 | 0.01 | 0.01 | 62 | 1021.8 |
| 20260901143050 | 70 | 246 | 1.7 | 5.2 | 0.00 | 0.01 | 0.01 | 62 | 1021.8 |
| 20260901142114 | 70 | 249 | 2.6 | 6.1 | 0.00 | 0.01 | 0.01 | 63 | 1021.9 |
| 20260901141034 | 70 | 305 | 1.7 | 6.1 | 0.00 | 0.01 | 0.01 | 63 | 1021.8 |
| 20260901140058 | 71 | 277 | 3.5 | 7.0 | 0.00 | 0.01 | 0.01 | 60 | 1021.9 |
| 20260901135040 | 71 | 267 | 2.6 | 6.1 | 0.00 | 0.01 | 0.01 | 61 | 1021.9 |
| 20260901134042 | 72 | 117 | 1.7 | 3.5 | 0.00 | 0.01 | 0.01 | 61 | 1021.8 |
| 20260901133106 | 70 | 312 | 5.2 | 7.0 | 0.00 | 0.01 | 0.01 | 63 | 1021.8 |
| 20260901132026 | 70 | 273 | 3.5 | 6.1 | 0.00 | 0.01 | 0.01 | 63 | 1021.9 |
| 20260901131054 | 71 | 294 | 2.6 | 7.0 | 0.00 | 0.01 | 0.01 | 61 | 1021.9 |
| 20260901130026 | 72 | 260 | 2.6 | 7.0 | 0.00 | 0.01 | 0.01 | 60 | 1021.9 |
| 20260901125051 | 71 | 302 | 2.6 | 7.0 | 0.00 | 0.01 | 0.01 | 61 | 1022.0 |
| 20260901124018 | 72 | 253 | 6.1 | 8.7 | 0.00 | 0.01 | 0.01 | 60 | 1022.0 |
| 20260901123042 | 71 | 293 | 3.5 | 7.8 | 0.00 | 0.01 | 0.01 | 61 | 1021.9 |
| 20260901122134 | 70 | 289 | 6.1 | 9.6 | 0.00 | 0.01 | 0.01 | 64 | 1022.0 |
| 20260901121034 | 70 | 249 | 3.5 | 6.1 | 0.00 | 0.01 | 0.01 | 64 | 1022.0 |
| 20260901120106 | 69 | 273 | 1.7 | 7.0 | 0.00 | 0.01 | 0.01 | 63 | 1022.1 |
| 20260901115026 | 70 | 310 | 7.0 | 9.6 | 0.00 | 0.01 | 0.01 | 63 | 1022.0 |
| 20260901114049 | 70 | 284 | 5.2 | 7.8 | 0.00 | 0.01 | 0.01 | 65 | 1022.0 |
| 20260901113114 | 70 | 265 | 5.2 | 9.6 | 0.00 | 0.01 | 0.01 | 64 | 1022.0 |
| 20260901112034 | 70 | 245 | 5.2 | 8.7 | 0.00 | 0.01 | 0.01 | 63 | 1022.1 |
| 20260901111058 | 69 | 279 | 6.1 | 8.7 | 0.00 | 0.01 | 0.01 | 68 | 1022.1 |
| 20260901110026 | 67 | 287 | 4.3 | 7.8 | 0.00 | 0.01 | 0.01 | 69 | 1022.1 |
| 20260901105050 | 68 | 279 | 7.0 | 9.6 | 0.00 | 0.01 | 0.01 | 68 | 1022.0 |
| 20260901104116 | 69 | 268 | 3.5 | 6.1 | 0.00 | 0.01 | 0.01 | 69 | 1022.0 |
| 20260901103034 | 68 | 309 | 2.6 | 6.1 | 0.00 | 0.01 | 0.01 | 71 | 1022.1 |
| 20260901102106 | 66 | 332 | 4.3 | 6.1 | 0.00 | 0.01 | 0.01 | 73 | 1022.0 |
| 20260901101029 | 66 | 292 | 4.3 | 7.8 | 0.00 | 0.01 | 0.01 | 74 | 1022.1 |
| 20260901100058 | 67 | 287 | 3.5 | 6.1 | 0.00 | 0.01 | 0.01 | 71 | 1022.0 |
| 20260901095018 | 68 | 271 | 3.5 | 7.0 | 0.00 | 0.01 | 0.01 | 70 | 1022.0 |
| 20260901094042 | 68 | 248 | 3.5 | 6.1 | 0.00 | 0.01 | 0.01 | 70 | 1022.0 |
| 20260901093107 | 68 | 241 | 4.3 | 7.0 | 0.00 | 0.01 | 0.01 | 70 | 1021.9 |
| 20260901092048 | 68 | 259 | 2.6 | 5.2 | 0.00 | 0.01 | 0.01 | 72 | 1021.9 |
| 20260901091110 | 68 | 266 | 4.3 | 7.8 | 0.00 | 0.01 | 0.01 | 72 | 1021.8 |
| 20260901090113 | 67 | 299 | 2.6 | 6.1 | 0.00 | 0.01 | 0.01 | 75 | 1021.8 |
| 20260901085033 | 67 | 286 | 4.3 | 7.0 | 0.00 | 0.01 | 0.01 | 73 | 1021.7 |
| 20260901084105 | 67 | 234 | 0.9 | 6.1 | 0.00 | 0.01 | 0.01 | 77 | 1021.7 |
| 20260901083026 | 67 | 236 | 3.5 | 6.1 | 0.00 | 0.02 | 0.01 | 80 | 1021.5 |
| 20260901082050 | 65 | 239 | 1.7 | 5.2 | 0.00 | 0.02 | 0.01 | 85 | 1021.5 |
| 20260901081134 | 65 | 228 | 2.6 | 6.1 | 0.00 | 0.10 | 0.01 | 86 | 1021.5 |
| 20260901080036 | 64 | 226 | 1.7 | 6.1 | 0.00 | 0.17 | 0.01 | 88 | 1021.4 |
| 20260901075058 | 63 | 225 | 2.6 | 3.5 | 0.00 | 0.22 | 0.01 | 88 | 1021.3 |
| 20260901074018 | 63 | 244 | 2.6 | 5.2 | 0.00 | 0.22 | 0.01 | 90 | 1021.3 |
| 20260901073042 | 63 | 230 | 2.6 | 6.1 | 0.00 | 0.23 | 0.01 | 91 | 1021.2 |
| 20260901072106 | 62 | 235 | 2.6 | 3.5 | 0.00 | 0.23 | 0.01 | 92 | 1021.0 |
| 20260901071026 | 62 | 213 | 3.5 | 6.1 | 0.00 | 0.23 | 0.01 | 93 | 1021.0 |
| 20260901070141 | 62 | 233 | 0.9 | 2.6 | 0.00 | 0.23 | 0.01 | 93 | 1021.0 |
| 20260901065018 | 61 | 224 | 3.5 | 6.1 | 0.00 | 0.23 | 0.01 | 94 | 1021.0 |
| 20260901064042 | 61 | 228 | 1.7 | 3.5 | 0.00 | 0.23 | 0.01 | 94 | 1020.9 |
| 20260901063106 | 61 | 224 | 0.9 | 1.7 | 0.00 | 0.23 | 0.01 | 94 | 1020.8 |
| 20260901062026 | 61 | 211 | 0.0 | 1.7 | 0.01 | 0.24 | 0.01 | 94 | 1020.7 |
| 20260901061053 | 61 | 0.0 | 0.0 | 0.01 | 0.26 | 0.01 | 94 | 1020.6 | |
| 20260901060113 | 61 | 0.0 | 0.0 | 0.01 | 0.29 | 0.01 | 94 | 1020.5 | |
| 20260901055053 | 61 | 0.0 | 0.0 | 0.01 | 0.30 | 0.01 | 94 | 1020.4 | |
| 20260901054101 | 61 | 245 | 0.0 | 1.7 | 0.01 | 0.30 | 0.01 | 94 | 1020.5 |
| 20260901053105 | 61 | 264 | 0.9 | 2.6 | 0.01 | 0.30 | 0.01 | 94 | 1020.3 |
| 20260901052049 | 61 | 237 | 2.6 | 3.5 | 0.00 | 0.29 | 0.00 | 94 | 1020.2 |
| 20260901051114 | 60 | 232 | 2.6 | 3.5 | 0.00 | 0.29 | 0.00 | 94 | 1020.1 |
| 20260901050120 | 60 | 242 | 1.7 | 5.2 | 0.00 | 0.29 | 0.00 | 94 | 1020.0 |
| 20260901045107 | 60 | 213 | 1.7 | 3.5 | 0.00 | 0.29 | 0.00 | 94 | 1019.9 |
| 20260901044025 | 60 | 218 | 0.0 | 1.7 | 0.00 | 0.29 | 0.00 | 94 | 1019.9 |
| 20260901043111 | 60 | 204 | 0.0 | 1.7 | 0.00 | 0.29 | 0.00 | 94 | 1019.8 |
| 20260901042044 | 60 | 216 | 0.0 | 1.7 | 0.00 | 0.29 | 0.00 | 94 | 1019.7 |
| 20260901041110 | 60 | 243 | 0.0 | 0.9 | 0.00 | 0.29 | 0.00 | 94 | 1019.6 |
| 20260901040113 | 60 | 0.0 | 0.0 | 0.00 | 0.29 | 0.00 | 93 | 1019.5 | |
| 20260901035033 | 60 | 227 | 0.0 | 1.7 | 0.00 | 0.29 | 0.00 | 93 | 1019.4 |
| 20260901034057 | 60 | 0.0 | 0.0 | 0.00 | 0.29 | 0.00 | 93 | 1019.3 | |
| 20260901033017 | 60 | 0.0 | 0.0 | 0.00 | 0.29 | 0.00 | 93 | 1019.4 | |
| 20260901032041 | 60 | 0.0 | 0.0 | 0.00 | 0.29 | 0.00 | 93 | 1019.3 | |
| 20260901031134 | 61 | 219 | 0.9 | 3.5 | 0.00 | 0.29 | 0.00 | 93 | 1019.3 |
| 20260901030042 | 61 | 212 | 1.7 | 3.5 | 0.00 | 0.29 | 0.00 | 93 | 1019.4 |
| 20260901025105 | 61 | 221 | 1.7 | 2.6 | 0.00 | 0.29 | 0.00 | 93 | 1019.3 |
| 20260901024026 | 61 | 210 | 0.9 | 3.5 | 0.00 | 0.29 | 0.00 | 93 | 1019.2 |
| 20260901023129 | 61 | 225 | 1.7 | 3.5 | 0.00 | 0.29 | 0.00 | 93 | 1019.2 |
| 20260901022113 | 61 | 209 | 2.6 | 5.2 | 0.00 | 0.29 | 0.00 | 92 | 1019.2 |
| 20260901021036 | 61 | 224 | 0.9 | 3.5 | 0.00 | 0.29 | 0.00 | 92 | 1019.3 |
| 20260901020117 | 61 | 228 | 1.7 | 3.5 | 0.00 | 0.29 | 0.00 | 92 | 1019.2 |
| 20260901015017 | 61 | 232 | 1.7 | 3.5 | 0.00 | 0.29 | 0.00 | 92 | 1019.3 |